Time;durP1;ratioP1;P1;durP2;ratioP2;P2;SDS_P1;SDS_P2;PMS_P1;PMS_P2;Temp;Humidity;BMP_temperature;BMP_pressure;BME280_temperature;BME280_humidity;BME280_pressure;Samples;Min_cycle;Max_cycle;Signal;HPM_P1;HPM_P2
2023/04/13 00:02:09;;;;;;;;;;;;;;;9.44;91.01;99008.34;5072343;28;19934;-58
2023/04/13 00:04:35;;;;;;;;;;;;;;;9.44;89.36;99013.66;5077025;28;19976;-58
2023/04/13 00:07:04;;;;;;;;;;;;;;;9.46;88.80;99017.13;5092673;28;19924;-59
2023/04/13 00:09:29;;;;;;;;;;;;;;;9.41;86.66;99013.81;5081554;28;19960;-58
2023/04/13 00:11:57;;;;;;;;;;;;;;;9.47;85.62;99010.91;5069289;28;19936;-58
2023/04/13 00:14:26;;;;;;;;;;;;;;;9.47;85.49;99008.25;5070397;28;19923;-58
2023/04/13 00:16:51;;;;;;;;;;;;;;;9.44;85.28;99011.00;5069159;28;19952;-58
2023/04/13 00:19:17;;;;;;;;;;;;;;;9.45;84.07;99015.41;5071274;28;20652;-58
2023/04/13 00:21:43;;;;;;;;;;;;;;;9.48;83.88;99017.94;5071278;28;19923;-58
2023/04/13 00:24:08;;;;;;;;;;;;;;;9.53;83.63;99009.75;5071556;28;20383;-58
2023/04/13 00:26:34;;;;;;;;;;;;;;;9.41;84.19;99012.97;5070701;28;19985;-58
2023/04/13 00:28:59;;;;;;;;;;;;;;;9.29;83.43;99017.03;5071264;28;19924;-58
2023/04/13 00:31:24;;;;;;;;;;;;;;;9.28;84.25;99020.59;5070328;28;19986;-58
2023/04/13 00:33:50;;;;;;;;;;;;;;;9.17;84.63;99017.53;5071793;28;20433;-58
2023/04/13 00:36:15;;;;;;;;;;;;;;;9.08;83.92;99012.59;5070196;28;19916;-58
2023/04/13 00:38:43;;;;;;;;;;;;;;;9.03;85.05;99009.28;5071290;28;19950;-58
2023/04/13 00:41:11;;;;;;;;;;;;;;;9.07;85.99;99016.19;5051579;28;19941;-58
2023/04/13 00:43:37;;;;;;;;;;;;;;;9.00;85.54;99009.41;5070562;28;20101;-58
2023/04/13 00:46:02;;;;;;;;;;;;;;;8.97;86.56;99014.84;5071278;28;20059;-58
2023/04/13 00:48:27;;;;;;;;;;;;;;;9.02;87.33;99020.84;5070723;28;19952;-58
2023/04/13 00:50:53;;;;;;;;;;;;;;;8.95;89.01;99022.00;5059996;28;20465;-58
2023/04/13 00:53:18;;;;;;;;;;;;;;;8.95;90.77;99022.88;5052872;28;19929;-58
2023/04/13 00:55:43;;;;;;;;;;;;;;;8.99;91.52;99023.63;5071093;28;19933;-58
2023/04/13 00:58:09;;;;;;;;;;;;;;;8.90;92.47;99019.56;5071048;28;19952;-58
2023/04/13 01:00:37;;;;;;;;;;;;;;;8.90;92.80;99022.22;5070111;28;19935;-57
2023/04/13 01:03:03;;;;;;;;;;;;;;;8.87;93.38;99018.81;5071288;28;19938;-57
2023/04/13 01:05:34;;;;;;;;;;;;;;;8.85;94.08;99016.22;5069990;28;19948;-57
2023/04/13 01:08:24;;;;;;;;;;;;;;;8.77;95.14;99012.16;5070840;28;20328;-57
2023/04/13 01:10:53;;;;;;;;;;;;;;;8.71;96.70;99008.00;5070743;28;19928;-57
2023/04/13 01:13:54;;;;;;;;;;;;;;;8.78;97.20;99005.97;5070264;28;20341;-56
2023/04/13 01:16:26;;;;;;;;;;;;;;;8.70;98.51;99003.59;5058990;28;20448;-56
2023/04/13 01:18:53;;;;;;;;;;;;;;;8.76;98.39;99013.09;5066558;28;19956;-57
2023/04/13 01:21:23;;;;;;;;;;;;;;;8.77;99.29;99007.75;5070585;28;19928;-57
2023/04/13 01:23:51;;;;;;;;;;;;;;;8.65;99.79;99002.09;5069489;28;19938;-56
2023/04/13 01:26:16;;;;;;;;;;;;;;;8.67;99.87;99008.16;5070386;28;19930;-56
2023/04/13 01:28:42;;;;;;;;;;;;;;;8.72;99.85;99004.41;5069338;28;19932;-56
2023/04/13 01:31:10;;;;;;;;;;;;;;;8.72;99.63;98998.25;5067938;28;20078;-57
2023/04/13 01:33:40;;;;;;;;;;;;;;;8.64;99.77;99000.34;5070479;28;19923;-56
2023/04/13 01:36:05;;;;;;;;;;;;;;;8.68;99.91;98999.31;5069464;28;19935;-56
2023/04/13 01:38:31;;;;;;;;;;;;;;;8.74;100.00;98996.41;5070224;28;19955;-56
2023/04/13 01:40:57;;;;;;;;;;;;;;;8.74;99.47;99001.69;5070441;28;20003;-57
2023/04/13 01:43:22;;;;;;;;;;;;;;;8.68;99.51;98996.66;5068849;28;19931;-56
2023/04/13 01:46:06;;;;;;;;;;;;;;;8.64;99.25;98995.03;5070165;28;19936;-56
2023/04/13 01:48:32;;;;;;;;;;;;;;;8.64;99.20;98990.63;5070181;28;20006;-56
2023/04/13 01:50:59;;;;;;;;;;;;;;;8.69;98.65;98999.25;5070423;28;20009;-57
2023/04/13 01:53:29;;;;;;;;;;;;;;;8.69;98.17;98998.38;5069647;28;19944;-57
2023/04/13 01:55:54;;;;;;;;;;;;;;;8.71;97.05;98996.53;5069395;28;19931;-56
2023/04/13 01:58:22;;;;;;;;;;;;;;;8.77;96.34;99001.56;5068567;28;19958;-56
2023/04/13 02:00:47;;;;;;;;;;;;;;;8.72;95.90;98995.59;5069417;28;19951;-57
2023/04/13 02:03:14;;;;;;;;;;;;;;;8.73;95.77;99005.28;5069559;28;19929;-57
2023/04/13 02:05:39;;;;;;;;;;;;;;;8.70;95.61;99010.69;5068415;28;19947;-57
2023/04/13 02:08:05;;;;;;;;;;;;;;;8.68;96.19;99007.25;5069362;28;19954;-57
2023/04/13 02:10:33;;;;;;;;;;;;;;;8.76;95.82;99005.16;5069084;28;19931;-57
2023/04/13 02:12:58;;;;;;;;;;;;;;;8.77;95.73;99004.22;5069698;28;20294;-57
2023/04/13 02:15:23;;;;;;;;;;;;;;;8.76;95.54;99005.16;5070070;28;19937;-57
2023/04/13 02:17:49;;;;;;;;;;;;;;;8.76;95.68;99013.97;5069432;28;20695;-57
2023/04/13 02:20:14;;;;;;;;;;;;;;;8.80;95.77;99022.63;5066946;28;19920;-57
2023/04/13 02:22:40;;;;;;;;;;;;;;;8.74;96.10;99023.78;5068979;28;19935;-57
2023/04/13 02:25:07;;;;;;;;;;;;;;;8.78;96.18;99019.22;5064717;28;19937;-57
2023/04/13 02:27:34;;;;;;;;;;;;;;;8.76;96.06;99021.06;5049604;28;19927;-57
2023/04/13 02:30:00;;;;;;;;;;;;;;;8.70;96.07;99022.16;5049796;28;19917;-57
2023/04/13 02:32:25;;;;;;;;;;;;;;;8.64;95.94;99021.56;5067811;28;20413;-56
2023/04/13 02:34:52;;;;;;;;;;;;;;;8.64;95.81;99027.72;5051583;28;20361;-57
2023/04/13 02:37:17;;;;;;;;;;;;;;;8.60;96.04;99031.41;5052375;28;20419;-57
2023/04/13 02:39:42;;;;;;;;;;;;;;;8.56;95.75;99029.81;5069530;28;20004;-57
2023/04/13 02:42:09;;;;;;;;;;;;;;;8.52;96.41;99037.94;5069920;28;19930;-56
2023/04/13 02:44:35;;;;;;;;;;;;;;;8.41;95.73;99025.13;5069682;28;19934;-57
2023/04/13 02:47:00;;;;;;;;;;;;;;;8.45;95.42;99036.47;5069060;28;20062;-56
2023/04/13 02:49:26;;;;;;;;;;;;;;;8.43;94.93;99033.03;5069618;28;20016;-56
2023/04/13 02:51:51;;;;;;;;;;;;;;;8.41;94.83;99029.56;5069571;28;19965;-57
2023/04/13 02:54:17;;;;;;;;;;;;;;;8.36;94.87;99028.88;5069610;28;19933;-57
2023/04/13 02:57:13;;;;;;;;;;;;;;;8.35;94.45;99029.81;5067555;28;19962;-56
2023/04/13 02:59:39;;;;;;;;;;;;;;;8.33;93.65;99026.34;5069213;28;19934;-57
2023/04/13 03:02:05;;;;;;;;;;;;;;;8.29;92.79;99030.03;5069458;28;19923;-57
2023/04/13 03:04:30;;;;;;;;;;;;;;;8.24;91.26;99016.13;5069545;28;20057;-57
2023/04/13 03:06:55;;;;;;;;;;;;;;;8.22;91.62;99020.59;5066381;28;19999;-56
2023/04/13 03:09:21;;;;;;;;;;;;;;;8.28;92.31;99018.59;5049593;28;19939;-56
2023/04/13 03:11:46;;;;;;;;;;;;;;;8.36;92.20;99026.22;5052007;28;19947;-56
2023/04/13 03:14:20;;;;;;;;;;;;;;;8.42;91.93;99018.91;5062595;28;20016;-56
2023/04/13 03:16:45;;;;;;;;;;;;;;;8.50;91.97;99018.59;5069430;28;19968;-56
2023/04/13 03:19:11;;;;;;;;;;;;;;;8.49;91.38;99022.16;5069370;28;19965;-56
2023/04/13 03:21:36;;;;;;;;;;;;;;;8.56;91.96;99019.22;5068602;28;19941;-56
2023/04/13 03:24:01;;;;;;;;;;;;;;;8.62;92.11;99023.41;5066921;28;20081;-56
2023/04/13 03:26:26;;;;;;;;;;;;;;;8.62;91.92;99028.69;5057839;28;20742;-56
2023/04/13 03:28:52;;;;;;;;;;;;;;;8.71;91.59;99029.22;5051893;28;20351;-57
2023/04/13 03:31:17;;;;;;;;;;;;;;;8.72;90.74;99019.44;5048971;28;19954;-57
2023/04/13 03:33:42;;;;;;;;;;;;;;;8.79;90.99;99011.19;5050533;28;19931;-56
2023/04/13 03:36:08;;;;;;;;;;;;;;;8.80;89.82;99023.50;5058291;28;20023;-56
2023/04/13 03:38:33;;;;;;;;;;;;;;;8.91;89.64;99020.44;5071767;28;19931;-56
2023/04/13 03:40:59;;;;;;;;;;;;;;;8.96;89.01;99024.59;5069742;28;20482;-56
2023/04/13 03:43:24;;;;;;;;;;;;;;;8.94;88.42;99025.59;5071171;28;19931;-56
2023/04/13 03:45:50;;;;;;;;;;;;;;;9.02;88.20;99027.00;5071717;28;20526;-56
2023/04/13 03:48:15;;;;;;;;;;;;;;;9.02;87.03;99027.00;5069397;28;19947;-56
2023/04/13 03:50:40;;;;;;;;;;;;;;;9.03;86.77;99027.84;5072476;28;20389;-56
2023/04/13 03:53:05;;;;;;;;;;;;;;;9.04;86.92;99029.59;5072519;28;19975;-56
2023/04/13 03:55:31;;;;;;;;;;;;;;;9.02;86.70;99026.13;5071512;28;19937;-57
2023/04/13 03:57:56;;;;;;;;;;;;;;;9.02;86.94;99016.41;5062109;28;20337;-56
2023/04/13 04:00:21;;;;;;;;;;;;;;;9.06;86.51;99022.44;5072176;28;19928;-56
2023/04/13 04:02:47;;;;;;;;;;;;;;;9.09;86.31;99027.63;5071398;28;19936;-56
2023/04/13 04:05:12;;;;;;;;;;;;;;;9.05;85.66;99028.66;5068848;28;19948;-56
2023/04/13 04:07:37;;;;;;;;;;;;;;;9.07;86.16;99022.38;5051237;28;20024;-56
2023/04/13 04:10:03;;;;;;;;;;;;;;;9.02;84.01;99028.78;5066251;28;19977;-56
2023/04/13 04:12:28;;;;;;;;;;;;;;;9.07;83.80;99029.47;5071216;28;19930;-56
2023/04/13 04:14:54;;;;;;;;;;;;;;;9.13;83.84;99029.19;5065185;28;19944;-56
2023/04/13 04:17:19;;;;;;;;;;;;;;;9.12;83.97;99033.66;5051902;28;20476;-56
2023/04/13 04:19:45;;;;;;;;;;;;;;;9.16;83.44;99032.59;5054156;28;20289;-56
2023/04/13 04:22:12;;;;;;;;;;;;;;;9.11;83.35;99039.88;5051778;28;19932;-56
2023/04/13 04:24:38;;;;;;;;;;;;;;;9.14;82.95;99046.84;5062485;28;19938;-56
2023/04/13 04:27:04;;;;;;;;;;;;;;;9.11;83.23;99045.19;5071448;28;19948;-56
2023/04/13 04:29:33;;;;;;;;;;;;;;;9.17;83.03;99044.06;5069729;28;19924;-56
2023/04/13 04:32:01;;;;;;;;;;;;;;;9.15;81.79;99051.22;5052309;28;19929;-56
2023/04/13 04:34:27;;;;;;;;;;;;;;;9.17;81.64;99057.34;5056552;28;19974;-56
2023/04/13 04:36:54;;;;;;;;;;;;;;;9.16;80.97;99055.59;5059465;28;20014;-56
2023/04/13 04:39:20;;;;;;;;;;;;;;;9.18;81.51;99056.38;5071708;28;19970;-56
2023/04/13 04:41:46;;;;;;;;;;;;;;;9.22;81.94;99063.31;5068947;28;20290;-56
2023/04/13 04:44:15;;;;;;;;;;;;;;;9.17;81.92;99060.84;5051392;28;19982;-56
2023/04/13 04:46:42;;;;;;;;;;;;;;;9.14;82.42;99060.97;5060617;28;19926;-56
2023/04/13 04:49:07;;;;;;;;;;;;;;;9.10;81.44;99061.16;5065536;28;20006;-56
2023/04/13 04:51:33;;;;;;;;;;;;;;;9.15;82.08;99067.13;5071162;28;19931;-56
2023/04/13 04:54:00;;;;;;;;;;;;;;;9.19;82.81;99079.34;5068073;28;20400;-56
2023/04/13 04:56:26;;;;;;;;;;;;;;;9.20;82.92;99076.63;5069671;28;20075;-56
2023/04/13 04:58:51;;;;;;;;;;;;;;;9.15;82.79;99078.63;5068327;28;20402;-57
2023/04/13 05:01:21;;;;;;;;;;;;;;;9.22;82.20;99087.19;5065588;28;20293;-56
2023/04/13 05:03:46;;;;;;;;;;;;;;;9.17;82.28;99087.38;5060018;28;20680;-56
2023/04/13 05:06:12;;;;;;;;;;;;;;;9.28;82.88;99100.19;5085391;28;19972;-56
2023/04/13 05:08:37;;;;;;;;;;;;;;;9.30;82.72;99093.91;5077519;28;19951;-56
2023/04/13 05:11:06;;;;;;;;;;;;;;;9.29;82.92;99101.94;5052816;28;19939;-56
2023/04/13 05:13:31;;;;;;;;;;;;;;;9.31;82.65;99103.56;5050538;28;19932;-57
2023/04/13 05:15:56;;;;;;;;;;;;;;;9.30;82.32;99103.63;5053041;28;20353;-57
2023/04/13 05:18:22;;;;;;;;;;;;;;;9.27;82.68;99109.09;5053278;28;19929;-57
2023/04/13 05:20:47;;;;;;;;;;;;;;;9.15;81.72;99114.88;5053296;28;19920;-56
2023/04/13 05:23:12;;;;;;;;;;;;;;;9.25;82.85;99109.16;5050718;28;19993;-57
2023/04/13 05:25:38;;;;;;;;;;;;;;;9.21;82.17;99109.31;5067939;28;19928;-57
2023/04/13 05:28:04;;;;;;;;;;;;;;;9.29;82.23;99115.19;5067335;28;19921;-57
2023/04/13 05:30:29;;;;;;;;;;;;;;;9.31;81.86;99110.66;5070651;28;19977;-57
2023/04/13 05:32:55;;;;;;;;;;;;;;;9.36;81.65;99124.59;5066571;28;20374;-57
2023/04/13 05:35:22;;;;;;;;;;;;;;;9.45;82.35;99133.97;5050552;28;20418;-57
2023/04/13 05:37:47;;;;;;;;;;;;;;;9.43;81.71;99139.34;5050385;28;19920;-57
2023/04/13 05:40:13;;;;;;;;;;;;;;;9.40;81.69;99136.84;5050412;28;19989;-57
2023/04/13 05:42:40;;;;;;;;;;;;;;;9.47;82.55;99138.31;5052858;28;19951;-57
2023/04/13 05:45:08;;;;;;;;;;;;;;;9.46;82.08;99141.00;5050129;28;19966;-56
2023/04/13 05:47:33;;;;;;;;;;;;;;;9.53;81.41;99138.03;5050114;28;19997;-56
2023/04/13 05:49:59;;;;;;;;;;;;;;;9.66;81.76;99143.69;5050276;28;19967;-57
2023/04/13 05:52:24;;;;;;;;;;;;;;;9.59;81.21;99140.44;5053209;28;19992;-57
2023/04/13 05:54:49;;;;;;;;;;;;;;;9.69;81.78;99144.41;5067415;28;19934;-57
2023/04/13 05:57:15;;;;;;;;;;;;;;;9.61;80.59;99143.88;5069503;28;19999;-57
2023/04/13 05:59:40;;;;;;;;;;;;;;;9.62;80.52;99142.94;5058721;28;20324;-57
2023/04/13 06:02:07;;;;;;;;;;;;;;;9.58;80.51;99141.38;5049246;28;20634;-57
2023/04/13 06:04:33;;;;;;;;;;;;;;;9.66;80.53;99146.34;5061173;28;19950;-57
2023/04/13 06:06:58;;;;;;;;;;;;;;;9.73;80.87;99155.78;5054836;28;20101;-56
2023/04/13 06:09:23;;;;;;;;;;;;;;;9.82;80.05;99150.91;5069978;28;19951;-57
2023/04/13 06:11:49;;;;;;;;;;;;;;;9.83;80.54;99155.31;5058106;28;20417;-57
2023/04/13 06:14:15;;;;;;;;;;;;;;;9.87;80.29;99161.34;5049844;28;20077;-57
2023/04/13 06:16:40;;;;;;;;;;;;;;;9.90;80.63;99159.41;5049712;28;19923;-57
2023/04/13 06:19:06;;;;;;;;;;;;;;;9.91;80.00;99161.16;5049932;28;19916;-57
2023/04/13 06:21:32;;;;;;;;;;;;;;;9.89;80.17;99163.00;5052763;28;19949;-57
2023/04/13 06:23:57;;;;;;;;;;;;;;;9.92;80.61;99169.97;5053399;28;19934;-57
2023/04/13 06:26:24;;;;;;;;;;;;;;;9.94;79.80;99171.66;5067835;28;20622;-57
2023/04/13 06:28:49;;;;;;;;;;;;;;;9.86;79.76;99165.81;5069331;28;19916;-57
2023/04/13 06:31:15;;;;;;;;;;;;;;;9.81;79.79;99167.81;5065596;28;19951;-56
2023/04/13 06:33:40;;;;;;;;;;;;;;;9.86;80.14;99172.91;5069512;28;19956;-57
2023/04/13 06:36:06;;;;;;;;;;;;;;;9.99;80.63;99176.75;5064627;28;19956;-57
2023/04/13 06:38:31;;;;;;;;;;;;;;;9.97;79.69;99174.16;5056595;28;19938;-57
2023/04/13 06:41:00;;;;;;;;;;;;;;;10.03;80.13;99181.03;5069546;28;20028;-57
2023/04/13 06:43:26;;;;;;;;;;;;;;;9.97;79.47;99171.50;5053422;28;20022;-57
2023/04/13 06:45:56;;;;;;;;;;;;;;;10.08;79.00;99166.63;5062744;28;19980;-56
2023/04/13 06:48:21;;;;;;;;;;;;;;;10.14;79.87;99168.16;5052435;28;19946;-57
2023/04/13 06:50:46;;;;;;;;;;;;;;;10.22;79.13;99160.69;5051243;28;19946;-56
2023/04/13 06:53:11;;;;;;;;;;;;;;;10.27;78.36;99170.19;5050425;28;20129;-56
2023/04/13 06:55:37;;;;;;;;;;;;;;;10.33;78.84;99169.91;5066794;28;19986;-56
2023/04/13 06:58:02;;;;;;;;;;;;;;;10.36;78.34;99172.44;5069474;28;19955;-57
2023/04/13 07:00:28;;;;;;;;;;;;;;;10.56;78.62;99167.06;5067735;28;20289;-57
2023/04/13 07:02:53;;;;;;;;;;;;;;;10.56;78.16;99172.38;5065809;28;20412;-56
2023/04/13 07:05:18;;;;;;;;;;;;;;;10.45;77.67;99172.03;5075757;28;19941;-56
2023/04/13 07:07:44;;;;;;;;;;;;;;;10.61;77.73;99166.84;5056386;28;19917;-57
2023/04/13 07:10:09;;;;;;;;;;;;;;;10.59;76.90;99176.72;5058365;28;20329;-57
2023/04/13 07:12:35;;;;;;;;;;;;;;;10.89;77.54;99171.78;5072204;28;20531;-57
2023/04/13 07:15:00;;;;;;;;;;;;;;;10.98;76.35;99168.66;5060129;28;20422;-57
2023/04/13 07:17:25;;;;;;;;;;;;;;;10.94;73.22;99172.41;5053142;28;19953;-56
2023/04/13 07:19:51;;;;;;;;;;;;;;;11.10;74.95;99168.09;5055610;28;19974;-56
2023/04/13 07:22:16;;;;;;;;;;;;;;;11.22;73.14;99162.19;5053659;28;19925;-57
2023/04/13 07:24:41;;;;;;;;;;;;;;;11.42;73.68;99165.56;5072942;28;19989;-56
2023/04/13 07:27:07;;;;;;;;;;;;;;;11.51;72.39;99169.56;5069033;28;19941;-57
2023/04/13 07:29:32;;;;;;;;;;;;;;;11.46;71.92;99160.94;5072774;28;19931;-57
2023/04/13 07:32:01;;;;;;;;;;;;;;;11.41;72.95;99162.97;5072873;28;19912;-55
2023/04/13 07:34:27;;;;;;;;;;;;;;;11.48;72.58;99164.41;5071487;28;19934;-55
2023/04/13 07:36:53;;;;;;;;;;;;;;;11.77;72.43;99155.84;5070792;28;19912;-55
2023/04/13 07:39:18;;;;;;;;;;;;;;;11.88;68.96;99165.00;5072729;28;20335;-56
2023/04/13 07:41:45;;;;;;;;;;;;;;;11.95;70.16;99154.91;5063396;28;19945;-55
2023/04/13 07:44:10;;;;;;;;;;;;;;;12.22;70.02;99158.78;5054473;28;20367;-56
2023/04/13 07:46:36;;;;;;;;;;;;;;;12.61;69.29;99164.66;5052484;28;19982;-56
2023/04/13 07:49:02;;;;;;;;;;;;;;;12.80;67.55;99164.53;5054858;28;20432;-55
2023/04/13 07:51:28;;;;;;;;;;;;;;;12.73;65.55;99173.81;5052436;28;19937;-55
2023/04/13 07:53:54;;;;;;;;;;;;;;;12.61;66.30;99171.78;5057331;28;20017;-56
2023/04/13 07:56:20;;;;;;;;;;;;;;;12.46;67.06;99173.47;5072086;28;20045;-56
2023/04/13 07:58:45;;;;;;;;;;;;;;;12.68;68.20;99168.72;5072315;28;19942;-56
2023/04/13 08:01:11;;;;;;;;;;;;;;;12.55;67.14;99172.13;5065162;28;19932;-56
2023/04/13 08:03:36;;;;;;;;;;;;;;;12.41;66.94;99175.53;5052334;28;20398;-56
2023/04/13 08:06:08;;;;;;;;;;;;;;;12.32;66.84;99160.00;5085088;28;20010;-56
2023/04/13 08:08:33;;;;;;;;;;;;;;;12.53;68.69;99169.56;5092344;28;19948;-56
2023/04/13 08:11:00;;;;;;;;;;;;;;;13.27;66.78;99168.09;5067770;28;19936;-56
2023/04/13 08:13:26;;;;;;;;;;;;;;;13.57;65.41;99165.47;5051677;28;19932;-56
2023/04/13 08:15:54;;;;;;;;;;;;;;;14.05;62.33;99167.91;5051220;28;19927;-56
2023/04/13 08:18:19;;;;;;;;;;;;;;;14.45;62.04;99154.72;5050342;28;19932;-56
2023/04/13 08:20:45;;;;;;;;;;;;;;;14.71;59.19;99153.06;5060919;28;19934;-57
2023/04/13 08:23:10;;;;;;;;;;;;;;;14.86;59.10;99161.97;5071310;28;19916;-56
2023/04/13 08:25:43;;;;;;;;;;;;;;;15.10;59.16;99166.63;5067656;28;19979;-56
2023/04/13 08:28:08;;;;;;;;;;;;;;;14.49;57.21;99158.06;5069139;28;20337;-56
2023/04/13 08:30:34;;;;;;;;;;;;;;;13.88;59.26;99165.38;5053097;28;19935;-56
2023/04/13 08:32:59;;;;;;;;;;;;;;;13.79;60.60;99176.63;5067116;28;19966;-56
2023/04/13 08:35:25;;;;;;;;;;;;;;;13.70;63.39;99167.34;5057039;28;19937;-56
2023/04/13 08:37:51;;;;;;;;;;;;;;;13.45;62.79;99182.19;5051480;28;19956;-56
2023/04/13 08:40:17;;;;;;;;;;;;;;;13.17;63.33;99178.44;5054268;28;19917;-55
2023/04/13 08:42:43;;;;;;;;;;;;;;;13.11;65.74;99173.41;5071409;28;19934;-56
2023/04/13 08:45:08;;;;;;;;;;;;;;;13.04;67.13;99181.88;5070875;28;20021;-56
2023/04/13 08:47:34;;;;;;;;;;;;;;;12.75;66.02;99191.44;5053934;28;19994;-56
2023/04/13 08:50:00;;;;;;;;;;;;;;;12.66;66.40;99186.63;5051449;28;20032;-56
2023/04/13 08:52:27;;;;;;;;;;;;;;;12.57;67.17;99196.94;5053886;28;20357;-55
2023/04/13 08:54:53;;;;;;;;;;;;;;;12.43;66.45;99195.00;5058551;28;20322;-56
2023/04/13 08:57:19;;;;;;;;;;;;;;;12.23;67.38;99205.84;5071155;28;20396;-56
2023/04/13 08:59:46;;;;;;;;;;;;;;;12.10;66.99;99194.09;5071264;28;19936;-55
2023/04/13 09:02:12;;;;;;;;;;;;;;;12.05;69.35;99203.25;5071060;28;19942;-55
2023/04/13 09:04:41;;;;;;;;;;;;;;;11.88;69.08;99207.66;5070563;28;19959;-56
2023/04/13 09:07:07;;;;;;;;;;;;;;;11.77;71.60;99211.78;5091040;28;19995;-56
2023/04/13 09:09:35;;;;;;;;;;;;;;;11.67;73.99;99208.72;5091234;28;19926;-56
2023/04/13 09:12:00;;;;;;;;;;;;;;;11.89;75.85;99208.50;5091089;28;19926;-56
2023/04/13 09:14:25;;;;;;;;;;;;;;;12.08;77.31;99219.06;5069251;28;19940;-56
2023/04/13 09:16:51;;;;;;;;;;;;;;;11.90;77.72;99220.88;5070784;28;19931;-57
2023/04/13 09:19:16;;;;;;;;;;;;;;;11.64;78.36;99221.34;5071019;28;20013;-56
2023/04/13 09:21:42;;;;;;;;;;;;;;;11.57;79.19;99227.84;5068712;28;20420;-56
2023/04/13 09:24:08;;;;;;;;;;;;;;;11.70;80.92;99221.00;5057908;28;19932;-57
2023/04/13 09:26:43;;;;;;;;;;;;;;;11.79;81.22;99225.91;5070492;28;19939;-56
2023/04/13 09:29:11;;;;;;;;;;;;;;;11.77;82.67;99227.78;5070496;28;20426;-57
2023/04/13 09:31:38;;;;;;;;;;;;;;;11.78;81.51;99233.03;5066012;28;19940;-57
2023/04/13 09:34:03;;;;;;;;;;;;;;;11.83;82.59;99227.44;5070592;28;20328;-56
2023/04/13 09:36:28;;;;;;;;;;;;;;;11.99;83.23;99220.44;5070319;28;19928;-57
2023/04/13 09:38:54;;;;;;;;;;;;;;;12.14;82.66;99234.78;5071226;28;19933;-57
2023/04/13 09:41:36;;;;;;;;;;;;;;;12.26;82.70;99226.13;5055055;28;19931;-57
2023/04/13 09:44:26;;;;;;;;;;;;;;;12.43;82.28;99231.44;5050606;28;20005;-57
2023/04/13 09:46:58;;;;;;;;;;;;;;;12.47;79.35;99239.22;5052735;28;19936;-57
2023/04/13 09:49:24;;;;;;;;;;;;;;;12.34;80.25;99232.78;5050606;28;19935;-57
2023/04/13 09:51:50;;;;;;;;;;;;;;;12.48;80.91;99219.63;5053029;28;20267;-57
2023/04/13 09:54:19;;;;;;;;;;;;;;;12.48;79.11;99224.06;5056317;28;19938;-57
2023/04/13 09:56:45;;;;;;;;;;;;;;;12.57;78.32;99223.59;5069651;28;20002;-57
2023/04/13 09:59:11;;;;;;;;;;;;;;;12.75;79.05;99226.13;5055449;28;19938;-57
2023/04/13 10:01:39;;;;;;;;;;;;;;;12.70;77.13;99228.19;5049589;28;20467;-57
2023/04/13 10:04:05;;;;;;;;;;;;;;;12.69;78.11;99229.13;5049881;28;19977;-57
2023/04/13 10:06:36;;;;;;;;;;;;;;;12.70;78.01;99230.00;5086836;28;19947;-57
2023/04/13 10:09:01;;;;;;;;;;;;;;;12.72;77.10;99228.97;5051440;28;20007;-57
2023/04/13 10:11:27;;;;;;;;;;;;;;;12.70;76.44;99230.84;5059525;28;20041;-57
2023/04/13 10:13:55;;;;;;;;;;;;;;;12.65;75.90;99230.22;5056749;28;19941;-57
2023/04/13 10:16:39;;;;;;;;;;;;;;;12.73;75.81;99230.72;5049374;28;19973;-57
2023/04/13 10:19:19;;;;;;;;;;;;;;;12.97;77.82;99229.38;5052884;28;19943;-57
2023/04/13 10:21:46;;;;;;;;;;;;;;;12.88;76.12;99229.00;5050118;28;19923;-57
2023/04/13 10:24:12;;;;;;;;;;;;;;;12.81;74.75;99236.50;5054842;28;19936;-57
2023/04/13 10:26:38;;;;;;;;;;;;;;;12.67;72.33;99231.00;5058277;28;20006;-57
2023/04/13 10:29:03;;;;;;;;;;;;;;;12.63;73.07;99240.16;5058876;28;19951;-56
2023/04/13 10:31:36;;;;;;;;;;;;;;;12.61;72.13;99236.69;5066926;28;20269;-57
2023/04/13 10:34:02;;;;;;;;;;;;;;;12.66;72.21;99234.63;5069235;28;20410;-57
2023/04/13 10:36:37;;;;;;;;;;;;;;;12.76;73.66;99233.22;5068886;28;19986;-56
2023/04/13 10:39:02;;;;;;;;;;;;;;;12.93;73.29;99226.97;5049570;28;20049;-56
2023/04/13 10:41:28;;;;;;;;;;;;;;;13.23;73.71;99225.28;5050342;28;19942;-56
2023/04/13 10:44:19;;;;;;;;;;;;;;;13.56;70.28;99222.53;5056263;28;19975;-56
2023/04/13 10:46:49;;;;;;;;;;;;;;;14.13;69.06;99224.47;5052713;28;19917;-56
2023/04/13 10:49:14;;;;;;;;;;;;;;;15.07;68.13;99217.72;5056101;28;19947;-56
2023/04/13 10:51:40;;;;;;;;;;;;;;;15.59;64.16;99212.56;5055855;28;20044;-56
2023/04/13 10:54:07;;;;;;;;;;;;;;;16.28;60.90;99212.34;5065096;28;20027;-56
2023/04/13 10:56:32;;;;;;;;;;;;;;;16.42;57.19;99212.25;5072716;28;20387;-56
2023/04/13 10:58:58;;;;;;;;;;;;;;;16.84;55.67;99214.66;5068065;28;19924;-56
2023/04/13 11:01:23;;;;;;;;;;;;;;;16.64;52.08;99215.19;5052669;28;20365;-56
2023/04/13 11:03:49;;;;;;;;;;;;;;;16.67;51.72;99209.63;5068823;28;19946;-56
2023/04/13 11:06:15;;;;;;;;;;;;;;;16.62;52.98;99206.41;5057785;28;19994;-56
2023/04/13 11:08:41;;;;;;;;;;;;;;;16.67;51.88;99206.94;5053276;28;20002;-56
2023/04/13 11:11:06;;;;;;;;;;;;;;;16.74;53.44;99206.41;5055602;28;19934;-56
2023/04/13 11:13:31;;;;;;;;;;;;;;;16.87;50.14;99199.19;5055339;28;20434;-56
2023/04/13 11:16:01;;;;;;;;;;;;;;;17.24;49.64;99205.47;5053439;28;19989;-56
2023/04/13 11:18:26;;;;;;;;;;;;;;;17.47;49.10;99199.31;5055844;28;19931;-56
2023/04/13 11:20:52;;;;;;;;;;;;;;;17.23;49.70;99193.03;5052890;28;19934;-56
2023/04/13 11:23:18;;;;;;;;;;;;;;;17.21;50.16;99194.09;5055457;28;19947;-56
2023/04/13 11:25:54;;;;;;;;;;;;;;;17.29;49.63;99197.94;5071146;28;19985;-56
2023/04/13 11:28:23;;;;;;;;;;;;;;;16.57;49.08;99195.13;5071416;28;19966;-56
2023/04/13 11:30:53;;;;;;;;;;;;;;;15.89;54.25;99204.31;5070487;28;20308;-56
2023/04/13 11:33:28;;;;;;;;;;;;;;;15.54;59.39;99199.47;5072772;28;19953;-56
2023/04/13 11:35:54;;;;;;;;;;;;;;;15.38;60.53;99206.75;5072786;28;20461;-56
2023/04/13 11:38:19;;;;;;;;;;;;;;;15.32;63.22;99212.50;5067304;28;20028;-56
2023/04/13 11:40:46;;;;;;;;;;;;;;;15.14;65.62;99211.00;5052737;28;19950;-56
2023/04/13 11:43:13;;;;;;;;;;;;;;;15.31;65.38;99201.88;5055372;28;19933;-56
2023/04/13 11:45:40;;;;;;;;;;;;;;;15.61;nan;99198.13;5054939;28;19928;-59
2023/04/13 11:48:07;;;;;;;;;;;;;;;15.95;68.11;99188.66;5052382;28;19921;-57
2023/04/13 11:50:32;;;;;;;;;;;;;;;16.27;67.88;99187.34;5052627;28;20254;-57
2023/04/13 11:52:58;;;;;;;;;;;;;;;16.63;67.04;99181.25;5053049;28;19990;-57
2023/04/13 11:55:24;;;;;;;;;;;;;;;16.85;65.12;99182.31;5067401;28;19969;-57
2023/04/13 11:57:51;;;;;;;;;;;;;;;17.05;63.77;99173.69;5070985;28;20377;-57
2023/04/13 12:00:18;;;;;;;;;;;;;;;17.89;61.47;99174.59;5056396;28;20350;-57
2023/04/13 12:02:44;;;;;;;;;;;;;;;18.63;59.39;99162.59;5051321;28;19965;-57
2023/04/13 12:05:26;;;;;;;;;;;;;;;19.03;51.05;99161.13;5063923;28;20418;-57
2023/04/13 12:07:53;;;;;;;;;;;;;;;19.43;48.75;99159.63;5053227;28;19955;-57
2023/04/13 12:10:24;;;;;;;;;;;;;;;19.67;49.11;99157.59;5051727;28;20427;-57
2023/04/13 12:13:05;;;;;;;;;;;;;;;20.47;48.47;99170.53;5051901;28;20032;-57
2023/04/13 12:15:31;;;;;;;;;;;;;;;20.42;47.13;99164.66;5054412;28;19970;-57
2023/04/13 12:17:57;;;;;;;;;;;;;;;20.09;44.67;99162.09;5064168;28;19934;-57
2023/04/13 12:20:24;;;;;;;;;;;;;;;19.12;45.41;99160.38;5063843;28;20518;-57
2023/04/13 12:22:49;;;;;;;;;;;;;;;18.48;44.93;99153.88;5070938;28;19980;-57
2023/04/13 12:25:14;;;;;;;;;;;;;;;18.29;49.72;99161.63;5066710;28;19935;-57
2023/04/13 12:27:40;;;;;;;;;;;;;;;19.11;48.79;99151.44;5064474;28;19976;-57
2023/04/13 12:30:15;;;;;;;;;;;;;;;19.90;45.27;99145.72;5071903;28;20372;-57
2023/04/13 12:32:44;;;;;;;;;;;;;;;19.97;45.17;99155.03;5065506;28;20021;-57
2023/04/13 12:35:10;;;;;;;;;;;;;;;19.41;47.59;99156.19;5071681;28;19923;-57
2023/04/13 12:37:39;;;;;;;;;;;;;;;18.22;45.56;99163.94;5057164;28;19924;-57
2023/04/13 12:40:08;;;;;;;;;;;;;;;16.71;51.08;99176.22;5065880;28;19982;-57
2023/04/13 12:42:33;;;;;;;;;;;;;;;15.80;57.51;99181.63;5071615;28;19916;-57
2023/04/13 12:44:59;;;;;;;;;;;;;;;15.78;61.30;99181.75;5058947;28;19923;-57
2023/04/13 12:47:24;;;;;;;;;;;;;;;15.60;60.91;99176.78;5051684;28;20058;-57
2023/04/13 12:49:49;;;;;;;;;;;;;;;15.63;60.30;99177.41;5054253;28;19917;-58
2023/04/13 12:52:15;;;;;;;;;;;;;;;15.63;56.80;99177.41;5051558;28;19926;-57